DABC/CZL METAR and TAF weather

Enter ICAO airport designator
Station Type Date Time Source
DABC METAR 2022/11/30 16:00 UTC NOAA

DABC 301600Z 33008KT 9999 SCT016 BKN026 09/06 Q1015


Station Type Date Time Source
DABC Decoded METAR 2022/11/30 16:00 UTC NOAA

Constantine, Algeria (DABC) 36-17N 006-37E 694M
Nov 30, 2022 - 11:00 AM EST / 2022.11.30 1600 UTC
Wind: from the NNW (330 degrees) at 9 MPH (8 KT):0
Visibility: greater than 7 mile(s):0
Sky conditions: mostly cloudy
Temperature: 48 F (9 C)
Dew Point: 42 F (6 C)
Relative Humidity: 81%
Pressure (altimeter): 29.97 in. Hg (1015 hPa)
ob: DABC 301600Z 33008KT 9999 SCT016 BKN026 09/06 Q1015
cycle: 16

Station Type Date Time Source
DABC TAF 2022/11/30 18:33 UTC NOAA

TAF DABC 301700Z 3018/0118 32008KT 9999 SCT016 BKN026 PROB30
TEMPO 0104/0108 2000 BR SCT008

Example: see airport list